Lenorah, Texas
Current Conditions -  °F | °C
As of 2:15 AM on Sunday 21 Dec 2014 (Local Time) from KBPG Reporting Station
Overcast Overcast  
Wind Chill:   Ceiling: 1000
Heat Index:   Visibility: 10mi
Dew Point:   Wind: 13mph
Humidity: 83%   Direction: 180°S
Pressure: 30.04"   Gusts: NA
Location:  32.3°N, 101.88°W
Report Text: KBPG 210815Z AUTO 18011KT 10SM OVC010 09/06 A3004 RMK AO2 T00850057
Loading
Personal Weather Stations






























Interactive Weather Map New forecast layout! Learn more

10-Day Weather Forecast

Advertisements
Track Severe Weather on mobile